AAY1435 KPGD-KMLB
Flight info
| Callsign | AAY1435 |
|---|---|
| Flight time | 0h 26m |
| Altitude | 15000 |
| Route | ROGAN MOANS JOKRS4 |
| Aircraft | A320/M-SDE3FGHIRWY/LB1 |
Departure
| Time | 2026-04-30 00:24 |
|---|---|
| Airport | Punta Gorda Airport (KPGD) |
Arrival
| Time | 2026-04-30 00:51 |
|---|---|
| Airport | Melbourne Orlando International Airport (KMLB) |
| Time | Latitude | Longitude | Altitude | Speed | Heading |
|---|---|---|---|---|---|
| 2026-04-29 23:56 | 26.91615 | -81.99702 | 29 ft | 0 kts | 240° |
| 2026-04-30 00:14 | 26.91619 | -81.99694 | 30 ft | 4 kts | 240° |
| 2026-04-30 00:14 | 26.91632 | -81.99668 | 30 ft | 3 kts | 240° |
| 2026-04-30 00:15 | 26.91642 | -81.99648 | 30 ft | 3 kts | 240° |
| 2026-04-30 00:15 | 26.91652 | -81.99634 | 30 ft | 4 kts | 163° |
| 2026-04-30 00:15 | 26.91675 | -81.99646 | 30 ft | 4 kts | 148° |
| 2026-04-30 00:15 | 26.91692 | -81.99658 | 30 ft | 4 kts | 150° |
| 2026-04-30 00:16 | 26.91716 | -81.99672 | 30 ft | 4 kts | 152° |
| 2026-04-30 00:16 | 26.91728 | -81.99679 | 30 ft | 0 kts | 150° |
| 2026-04-30 00:18 | 26.91725 | -81.99678 | 30 ft | 4 kts | 153° |
| 2026-04-30 00:18 | 26.91710 | -81.99635 | 30 ft | 7 kts | 70° |
| 2026-04-30 00:18 | 26.91738 | -81.99580 | 30 ft | 10 kts | 59° |
| 2026-04-30 00:19 | 26.91769 | -81.99491 | 30 ft | 14 kts | 82° |
| 2026-04-30 00:19 | 26.91780 | -81.99377 | 30 ft | 14 kts | 84° |
| 2026-04-30 00:19 | 26.91788 | -81.99270 | 31 ft | 13 kts | 84° |
| 2026-04-30 00:19 | 26.91797 | -81.99170 | 31 ft | 12 kts | 83° |
| 2026-04-30 00:20 | 26.91806 | -81.99076 | 32 ft | 12 kts | 87° |
| 2026-04-30 00:20 | 26.91810 | -81.98989 | 32 ft | 11 kts | 83° |
| 2026-04-30 00:20 | 26.91815 | -81.98908 | 33 ft | 10 kts | 84° |
| 2026-04-30 00:20 | 26.91840 | -81.98842 | 32 ft | 9 kts | 37° |
| 2026-04-30 00:21 | 26.91895 | -81.98810 | 33 ft | 9 kts | 27° |
| 2026-04-30 00:21 | 26.91952 | -81.98776 | 33 ft | 10 kts | 30° |
| 2026-04-30 00:21 | 26.92027 | -81.98728 | 33 ft | 17 kts | 29° |
| 2026-04-30 00:21 | 26.92148 | -81.98652 | 33 ft | 22 kts | 30° |
| 2026-04-30 00:22 | 26.92289 | -81.98561 | 33 ft | 25 kts | 29° |
| 2026-04-30 00:22 | 26.92449 | -81.98464 | 34 ft | 27 kts | 29° |
| 2026-04-30 00:22 | 26.92617 | -81.98358 | 34 ft | 27 kts | 23° |
| 2026-04-30 00:22 | 26.92744 | -81.98280 | 34 ft | 9 kts | 28° |
| 2026-04-30 00:23 | 26.92778 | -81.98232 | 35 ft | 7 kts | 90° |
| 2026-04-30 00:23 | 26.92750 | -81.98176 | 36 ft | 10 kts | 134° |
| 2026-04-30 00:23 | 26.92675 | -81.98188 | 37 ft | 15 kts | 211° |
| 2026-04-30 00:23 | 26.92417 | -81.98345 | 36 ft | 81 kts | 209° |
| 2026-04-30 00:24 | 26.91700 | -81.98801 | 38 ft | 151 kts | 208° |
| 2026-04-30 00:24 | 26.90708 | -81.99403 | 554 ft | 167 kts | 212° |
| 2026-04-30 00:24 | 26.89662 | -82.00015 | 1287 ft | 170 kts | 217° |
| 2026-04-30 00:24 | 26.88880 | -82.00949 | 2165 ft | 162 kts | 247° |
| 2026-04-30 00:25 | 26.88720 | -82.02175 | 3000 ft | 161 kts | 281° |
| 2026-04-30 00:25 | 26.89251 | -82.03359 | 3359 ft | 189 kts | 320° |
| 2026-04-30 00:25 | 26.90539 | -82.03855 | 3766 ft | 212 kts | 7° |
| 2026-04-30 00:25 | 26.92039 | -82.03438 | 4286 ft | 234 kts | 21° |
| 2026-04-30 00:26 | 26.93645 | -82.02771 | 4868 ft | 258 kts | 23° |
| 2026-04-30 00:26 | 26.95351 | -82.02006 | 5737 ft | 269 kts | 22° |
| 2026-04-30 00:26 | 26.97109 | -82.01214 | 6717 ft | 275 kts | 20° |
| 2026-04-30 00:26 | 26.98902 | -82.00422 | 7722 ft | 278 kts | 20° |
| 2026-04-30 00:27 | 27.00715 | -81.99632 | 8743 ft | 281 kts | 20° |
| 2026-04-30 00:27 | 27.02552 | -81.98841 | 9774 ft | 284 kts | 20° |
| 2026-04-30 00:27 | 27.04405 | -81.98048 | 10462 ft | 299 kts | 19° |
| 2026-04-30 00:27 | 27.06423 | -81.97192 | 10924 ft | 319 kts | 19° |
| 2026-04-30 00:28 | 27.08550 | -81.96295 | 11716 ft | 326 kts | 19° |
| 2026-04-30 00:28 | 27.10665 | -81.95404 | 12570 ft | 331 kts | 19° |
| 2026-04-30 00:28 | 27.12836 | -81.94486 | 13443 ft | 336 kts | 19° |
| 2026-04-30 00:28 | 27.15035 | -81.93552 | 14247 ft | 340 kts | 18° |
| 2026-04-30 00:29 | 27.17263 | -81.92607 | 14761 ft | 344 kts | 18° |
| 2026-04-30 00:29 | 27.19499 | -81.91656 | 14938 ft | 343 kts | 18° |
| 2026-04-30 00:29 | 27.21708 | -81.90716 | 14991 ft | 334 kts | 18° |
| 2026-04-30 00:29 | 27.23864 | -81.89798 | 14995 ft | 330 kts | 18° |
| 2026-04-30 00:30 | 27.26046 | -81.89067 | 14995 ft | 326 kts | 8° |
| 2026-04-30 00:30 | 27.28276 | -81.88594 | 14995 ft | 326 kts | 8° |
| 2026-04-30 00:30 | 27.30507 | -81.88118 | 14996 ft | 326 kts | 8° |
| 2026-04-30 00:30 | 27.32736 | -81.87636 | 14995 ft | 326 kts | 8° |
| 2026-04-30 00:31 | 27.34966 | -81.87151 | 14995 ft | 326 kts | 8° |
| 2026-04-30 00:31 | 27.37195 | -81.86667 | 14995 ft | 326 kts | 8° |
| 2026-04-30 00:31 | 27.39459 | -81.86176 | 14999 ft | 345 kts | 8° |
| 2026-04-30 00:31 | 27.41923 | -81.85646 | 14997 ft | 372 kts | 8° |
| 2026-04-30 00:32 | 27.44499 | -81.85086 | 14995 ft | 381 kts | 8° |
| 2026-04-30 00:32 | 27.47116 | -81.84516 | 14995 ft | 383 kts | 8° |
| 2026-04-30 00:32 | 27.49698 | -81.83953 | 14991 ft | 383 kts | 8° |
| 2026-04-30 00:32 | 27.52321 | -81.83382 | 14991 ft | 383 kts | 8° |
| 2026-04-30 00:33 | 27.54933 | -81.82815 | 14993 ft | 383 kts | 8° |
| 2026-04-30 00:33 | 27.57559 | -81.82245 | 14992 ft | 383 kts | 8° |
| 2026-04-30 00:33 | 27.60173 | -81.81678 | 14990 ft | 383 kts | 8° |
| 2026-04-30 00:33 | 27.62798 | -81.81107 | 14991 ft | 383 kts | 8° |
| 2026-04-30 00:34 | 27.65417 | -81.80535 | 14987 ft | 383 kts | 8° |
| 2026-04-30 00:34 | 27.68029 | -81.79965 | 14987 ft | 383 kts | 8° |
| 2026-04-30 00:34 | 27.70647 | -81.79393 | 14987 ft | 383 kts | 8° |
| 2026-04-30 00:34 | 27.73266 | -81.78821 | 14988 ft | 383 kts | 8° |
| 2026-04-30 00:35 | 27.75885 | -81.78250 | 14989 ft | 383 kts | 8° |
| 2026-04-30 00:35 | 27.78504 | -81.77679 | 14990 ft | 383 kts | 8° |
| 2026-04-30 00:35 | 27.81125 | -81.77104 | 14992 ft | 383 kts | 9° |
| 2026-04-30 00:35 | 27.83742 | -81.76531 | 15005 ft | 384 kts | 8° |
| 2026-04-30 00:36 | 27.86363 | -81.75958 | 15006 ft | 384 kts | 8° |
| 2026-04-30 00:36 | 27.88984 | -81.75386 | 15006 ft | 383 kts | 8° |
| 2026-04-30 00:36 | 27.91603 | -81.74813 | 15006 ft | 383 kts | 8° |
| 2026-04-30 00:36 | 27.94224 | -81.74255 | 15006 ft | 383 kts | 8° |
| 2026-04-30 00:37 | 27.96846 | -81.73702 | 15007 ft | 383 kts | 8° |
| 2026-04-30 00:37 | 27.99472 | -81.73152 | 15008 ft | 383 kts | 8° |
| 2026-04-30 00:37 | 28.02081 | -81.72552 | 14996 ft | 385 kts | 13° |
| 2026-04-30 00:37 | 28.04549 | -81.71351 | 14832 ft | 391 kts | 28° |
| 2026-04-30 00:38 | 28.06758 | -81.69564 | 14458 ft | 390 kts | 33° |
| 2026-04-30 00:38 | 28.08921 | -81.67713 | 14088 ft | 388 kts | 34° |
| 2026-04-30 00:38 | 28.11053 | -81.65861 | 13712 ft | 386 kts | 36° |
| 2026-04-30 00:38 | 28.12865 | -81.63607 | 13301 ft | 390 kts | 53° |
| 2026-04-30 00:39 | 28.13984 | -81.60817 | 12904 ft | 394 kts | 72° |
| 2026-04-30 00:39 | 28.14278 | -81.57719 | 12496 ft | 397 kts | 89° |
| 2026-04-30 00:39 | 28.14167 | -81.54597 | 12051 ft | 395 kts | 90° |
| 2026-04-30 00:39 | 28.14045 | -81.51496 | 11612 ft | 392 kts | 90° |
| 2026-04-30 00:40 | 28.13923 | -81.48423 | 11188 ft | 389 kts | 90° |
| 2026-04-30 00:40 | 28.13788 | -81.45385 | 10992 ft | 379 kts | 91° |
| 2026-04-30 00:40 | 28.13634 | -81.42494 | 11004 ft | 357 kts | 91° |
| 2026-04-30 00:40 | 28.13473 | -81.39754 | 10844 ft | 344 kts | 91° |
| 2026-04-30 00:41 | 28.13311 | -81.37098 | 10487 ft | 330 kts | 91° |
| 2026-04-30 00:41 | 28.13158 | -81.34600 | 10144 ft | 314 kts | 91° |
| 2026-04-30 00:41 | 28.13013 | -81.32136 | 9789 ft | 307 kts | 91° |
| 2026-04-30 00:41 | 28.12874 | -81.29718 | 9409 ft | 306 kts | 91° |
| 2026-04-30 00:42 | 28.12737 | -81.27354 | 9035 ft | 304 kts | 91° |
| 2026-04-30 00:42 | 28.12600 | -81.24971 | 8660 ft | 302 kts | 91° |
| 2026-04-30 00:42 | 28.12464 | -81.22597 | 8288 ft | 301 kts | 91° |
| 2026-04-30 00:42 | 28.12329 | -81.20240 | 7913 ft | 299 kts | 92° |
| 2026-04-30 00:43 | 28.12195 | -81.17898 | 7554 ft | 297 kts | 92° |
| 2026-04-30 00:43 | 28.12061 | -81.15568 | 7197 ft | 296 kts | 93° |
| 2026-04-30 00:43 | 28.11923 | -81.13248 | 6847 ft | 295 kts | 93° |
| 2026-04-30 00:43 | 28.11786 | -81.10934 | 6490 ft | 293 kts | 94° |
| 2026-04-30 00:44 | 28.11650 | -81.08637 | 6128 ft | 291 kts | 94° |
| 2026-04-30 00:44 | 28.11517 | -81.06354 | 5748 ft | 290 kts | 94° |
| 2026-04-30 00:44 | 28.11383 | -81.04083 | 5385 ft | 287 kts | 94° |
| 2026-04-30 00:44 | 28.11250 | -81.01876 | 5020 ft | 273 kts | 94° |
| 2026-04-30 00:45 | 28.11126 | -80.99808 | 4663 ft | 260 kts | 94° |
| 2026-04-30 00:45 | 28.11006 | -80.97816 | 4295 ft | 249 kts | 94° |
| 2026-04-30 00:45 | 28.10890 | -80.95896 | 3929 ft | 241 kts | 94° |
| 2026-04-30 00:45 | 28.10775 | -80.94011 | 3568 ft | 240 kts | 94° |
| 2026-04-30 00:46 | 28.10661 | -80.92126 | 3207 ft | 241 kts | 94° |
| 2026-04-30 00:46 | 28.10548 | -80.90237 | 2982 ft | 236 kts | 94° |
| 2026-04-30 00:46 | 28.10438 | -80.88397 | 2978 ft | 234 kts | 94° |
| 2026-04-30 00:46 | 28.10328 | -80.86554 | 2973 ft | 231 kts | 94° |
| 2026-04-30 00:47 | 28.10222 | -80.84790 | 2974 ft | 220 kts | 94° |
| 2026-04-30 00:47 | 28.10114 | -80.83046 | 2622 ft | 228 kts | 95° |
| 2026-04-30 00:47 | 28.09993 | -80.81214 | 2133 ft | 237 kts | 96° |
| 2026-04-30 00:47 | 28.09711 | -80.79398 | 1970 ft | 229 kts | 104° |
| 2026-04-30 00:48 | 28.09487 | -80.77666 | 1825 ft | 221 kts | 88° |
| 2026-04-30 00:48 | 28.09611 | -80.75943 | 1581 ft | 218 kts | 87° |
| 2026-04-30 00:48 | 28.09723 | -80.74274 | 1349 ft | 207 kts | 89° |
| 2026-04-30 00:48 | 28.09807 | -80.72690 | 1078 ft | 193 kts | 89° |
| 2026-04-30 00:49 | 28.09883 | -80.71247 | 846 ft | 175 kts | 89° |
| 2026-04-30 00:49 | 28.09965 | -80.69956 | 708 ft | 155 kts | 90° |
| 2026-04-30 00:49 | 28.09998 | -80.68812 | 525 ft | 141 kts | 91° |
| 2026-04-30 00:49 | 28.10050 | -80.67772 | 354 ft | 129 kts | 90° |
| 2026-04-30 00:50 | 28.10100 | -80.66778 | 175 ft | 123 kts | 92° |
| 2026-04-30 00:50 | 28.10145 | -80.65833 | 64 ft | 121 kts | 91° |
| 2026-04-30 00:50 | 28.10182 | -80.64967 | 35 ft | 90 kts | 87° |
| 2026-04-30 00:50 | 28.10204 | -80.64446 | 33 ft | 54 kts | 86° |
| 2026-04-30 00:51 | 28.10228 | -80.64068 | 32 ft | 41 kts | 85° |
| 2026-04-30 00:51 | 28.10241 | -80.63789 | 32 ft | 27 kts | 90° |
| 2026-04-30 00:51 | 28.10203 | -80.63625 | 32 ft | 21 kts | 128° |
| 2026-04-30 00:51 | 28.10119 | -80.63523 | 30 ft | 15 kts | 133° |
| 2026-04-30 00:52 | 28.10046 | -80.63432 | 33 ft | 16 kts | 132° |
| 2026-04-30 00:52 | 28.09971 | -80.63334 | 36 ft | 12 kts | 132° |
| 2026-04-30 00:52 | 28.09933 | -80.63285 | 34 ft | 9 kts | 131° |
| 2026-04-30 00:52 | 28.09940 | -80.63213 | 35 ft | 12 kts | 46° |
| 2026-04-30 00:53 | 28.09993 | -80.63143 | 34 ft | 12 kts | 74° |
| 2026-04-30 00:53 | 28.09985 | -80.63044 | 34 ft | 14 kts | 100° |
| 2026-04-30 00:53 | 28.09973 | -80.62972 | 34 ft | 13 kts | 106° |
| 2026-04-30 00:53 | 28.09887 | -80.62929 | 32 ft | 8 kts | 189° |
| 2026-04-30 00:54 | 28.09869 | -80.62938 | 32 ft | 2 kts | 227° |
| 2026-04-30 00:54 | 28.09868 | -80.62956 | 32 ft | 4 kts | 276° |
| 2026-04-30 00:54 | 28.09879 | -80.62977 | 30 ft | 3 kts | 301° |
| 2026-04-30 00:54 | 28.09887 | -80.62993 | 31 ft | 2 kts | 300° |
| 2026-04-30 00:55 | 28.09889 | -80.62997 | 31 ft | 0 kts | 300° |
| 2026-04-30 00:55 | 28.09888 | -80.62995 | 32 ft | 0 kts | 300° |
| 2026-04-30 00:55 | 28.09888 | -80.62994 | 31 ft | 0 kts | 300° |